Time;durP1;ratioP1;P1;durP2;ratioP2;P2;SDS_P1;SDS_P2;PMS_P1;PMS_P2;Temp;Humidity;BMP_temperature;BMP_pressure;BME280_temperature;BME280_humidity;BME280_pressure;Samples;Min_cycle;Max_cycle;Signal;HPM_P1;HPM_P2
2021/09/02 00:00:17;;;;;;;12.40;6.37;;;;;;;9.17;100.00;94627.47;5075030;28;20203;-80
2021/09/02 00:02:44;;;;;;;12.50;6.10;;;;;;;9.10;100.00;94633.53;5074931;28;20199;-81
2021/09/02 00:05:11;;;;;;;10.63;6.10;;;;;;;9.17;100.00;94627.47;5075200;28;20227;-81
2021/09/02 00:07:37;;;;;;;15.30;6.03;;;;;;;9.16;100.00;94631.06;5074996;28;20577;-81
2021/09/02 00:10:05;;;;;;;13.47;6.10;;;;;;;9.21;100.00;94617.53;5074887;28;20195;-81
2021/09/02 00:12:31;;;;;;;10.23;6.17;;;;;;;9.30;100.00;94615.69;5074784;28;20199;-80
2021/09/02 00:14:59;;;;;;;13.03;6.17;;;;;;;9.22;100.00;94621.75;5074783;28;20199;-80
2021/09/02 00:17:26;;;;;;;10.60;6.40;;;;;;;9.11;100.00;94617.75;5074641;28;20213;-81
2021/09/02 00:19:52;;;;;;;10.87;6.33;;;;;;;9.03;100.00;94625.59;5074616;28;20213;-82
2021/09/02 00:22:19;;;;;;;10.03;5.57;;;;;;;9.02;100.00;94613.53;5074688;28;20202;-81
2021/09/02 00:24:45;;;;;;;11.00;6.40;;;;;;;9.17;100.00;94609.22;5074603;28;20233;-81
2021/09/02 00:27:12;;;;;;;14.57;5.80;;;;;;;9.26;100.00;94610.00;5074564;28;20199;-81
2021/09/02 00:29:39;;;;;;;11.20;6.20;;;;;;;9.26;100.00;94605.59;5074679;28;20282;-82
2021/09/02 00:32:08;;;;;;;10.47;6.10;;;;;;;9.14;100.00;94600.94;5074429;28;20213;-81
2021/09/02 00:34:34;;;;;;;11.90;6.47;;;;;;;9.09;100.00;94606.66;5074494;28;20207;-81
2021/09/02 00:37:01;;;;;;;10.53;5.83;;;;;;;9.19;100.00;94609.88;5074432;28;20195;-81
2021/09/02 00:39:27;;;;;;;13.23;6.50;;;;;;;9.16;100.00;94618.03;5073854;28;20199;-81
2021/09/02 00:41:54;;;;;;;11.77;5.30;;;;;;;9.00;100.00;94608.50;5074192;28;20680;-81
2021/09/02 00:44:34;;;;;;;15.50;5.93;;;;;;;9.13;100.00;94610.56;5074008;28;20222;-81
2021/09/02 00:47:01;;;;;;;10.10;6.00;;;;;;;8.96;100.00;94604.63;5074344;28;20221;-80
2021/09/02 00:49:29;;;;;;;13.90;6.57;;;;;;;8.99;100.00;94598.25;5074217;28;20205;-81
2021/09/02 00:51:58;;;;;;;11.63;5.90;;;;;;;8.83;100.00;94589.53;5074050;28;20195;-80
2021/09/02 00:54:24;;;;;;;11.13;6.37;;;;;;;8.78;100.00;94591.03;5073950;28;20195;-81
2021/09/02 00:56:51;;;;;;;12.43;6.47;;;;;;;8.83;100.00;94589.53;5073996;28;20550;-81
2021/09/02 00:59:17;;;;;;;11.10;6.73;;;;;;;8.88;100.00;94592.44;5074101;28;20323;-81
2021/09/02 01:01:44;;;;;;;10.30;6.40;;;;;;;8.85;100.00;94597.97;5073876;28;20195;-81
2021/09/02 01:04:11;;;;;;;12.00;6.60;;;;;;;8.88;100.00;94596.84;5073793;28;20222;-81
2021/09/02 01:06:40;;;;;;;11.87;6.30;;;;;;;8.80;100.00;94591.66;5074075;28;20199;-81
2021/09/02 01:09:06;;;;;;;13.47;6.67;;;;;;;8.85;100.00;94591.97;5073717;28;20708;-81
2021/09/02 01:11:33;;;;;;;9.60;5.57;;;;;;;8.72;100.00;94587.28;5073543;28;20675;-81
2021/09/02 01:13:59;;;;;;;12.90;6.75;;;;;;;8.73;100.00;94588.94;5073429;28;20431;-82
2021/09/02 01:16:26;;;;;;;12.57;6.83;;;;;;;8.76;100.00;94583.38;5073585;28;20199;-82
2021/09/02 01:18:52;;;;;;;11.50;6.37;;;;;;;8.63;100.00;94588.31;5073454;28;20207;-82
2021/09/02 01:21:19;;;;;;;13.53;6.67;;;;;;;8.59;100.00;94593.03;5073520;28;20289;-81
2021/09/02 01:23:47;;;;;;;13.20;6.77;;;;;;;8.51;100.00;94590.47;5073513;28;20199;-81
2021/09/02 01:26:16;;;;;;;13.07;6.63;;;;;;;8.45;100.00;94586.72;5073194;28;20585;-81
2021/09/02 01:28:43;;;;;;;16.87;7.17;;;;;;;8.44;100.00;94585.13;5073430;28;20303;-81
2021/09/02 01:31:11;;;;;;;12.33;6.83;;;;;;;8.30;100.00;94583.16;5073299;28;20531;-81
2021/09/02 01:33:42;;;;;;;14.40;6.60;;;;;;;8.33;100.00;94593.25;5073375;28;20206;-82
2021/09/02 01:36:09;;;;;;;10.63;6.13;;;;;;;8.13;100.00;94580.59;5073385;28;20688;-82
2021/09/02 01:38:37;;;;;;;14.77;6.70;;;;;;;8.19;100.00;94578.31;5073374;28;20198;-81
2021/09/02 01:41:05;;;;;;;13.43;6.87;;;;;;;8.10;100.00;94583.53;5073993;28;20195;-81
2021/09/02 01:43:32;;;;;;;10.80;5.93;;;;;;;7.86;100.00;94581.78;5073256;28;20199;-81
2021/09/02 01:45:58;;;;;;;15.90;7.37;;;;;;;7.86;100.00;94586.13;5072985;28;20238;-81
2021/09/02 01:48:25;;;;;;;13.30;6.57;;;;;;;7.78;100.00;94586.97;5073224;28;20206;-81
2021/09/02 01:50:51;;;;;;;18.30;6.60;;;;;;;7.81;100.00;94585.81;5070202;28;20199;-81
2021/09/02 01:53:19;;;;;;;14.27;7.13;;;;;;;7.82;100.00;94584.84;5073014;28;20680;-80
2021/09/02 01:55:47;;;;;;;11.53;6.30;;;;;;;7.72;100.00;94582.41;5073203;28;20198;-81
2021/09/02 01:58:15;;;;;;;17.40;7.30;;;;;;;7.75;100.00;94580.28;5073117;28;20206;-81
2021/09/02 02:04:04;;;;;;;16.50;6.97;;;;;;;7.64;100.00;94578.03;5052530;28;20669;-80
2021/09/02 02:06:30;;;;;;;13.60;6.70;;;;;;;7.46;100.00;94582.56;5052829;28;20593;-81
2021/09/02 02:08:56;;;;;;;11.13;6.20;;;;;;;7.26;100.00;94584.66;5052945;28;20246;-79
2021/09/02 02:11:23;;;;;;;11.53;6.40;;;;;;;7.25;100.00;94583.03;5052412;28;20199;-80
2021/09/02 02:13:51;;;;;;;12.97;6.20;;;;;;;6.97;100.00;94589.28;5052882;28;20269;-79
2021/09/02 02:16:17;;;;;;;12.43;6.33;;;;;;;6.83;100.00;94587.31;5052768;28;20213;-80
2021/09/02 02:18:43;;;;;;;16.63;8.33;;;;;;;7.08;100.00;94579.56;5052803;28;20203;-80
2021/09/02 02:21:12;;;;;;;19.20;8.50;;;;;;;7.31;100.00;94585.81;5052604;28;20617;-79
2021/09/02 02:23:43;;;;;;;21.20;9.67;;;;;;;7.41;100.00;94578.66;5052732;28;20230;-79
2021/09/02 02:26:10;;;;;;;19.90;9.47;;;;;;;7.59;100.00;94569.91;5052776;28;20380;-80
2021/09/02 02:28:42;;;;;;;16.23;9.70;;;;;;;7.60;100.00;94576.72;5052525;28;20211;-80
2021/09/02 02:31:18;;;;;;;16.37;8.53;;;;;;;7.36;100.00;94580.94;5052540;28;20203;-80
2021/09/02 02:33:51;;;;;;;15.00;7.03;;;;;;;7.09;100.00;94576.81;5052436;28;20661;-80
2021/09/02 02:36:17;;;;;;;12.13;7.30;;;;;;;6.95;100.00;94567.88;5062824;28;20742;-82
2021/09/02 02:38:44;;;;;;;16.83;7.27;;;;;;;6.92;100.00;94570.78;5072474;28;20195;-83
2021/09/02 02:41:10;;;;;;;16.47;8.27;;;;;;;7.09;100.00;94568.22;5072643;28;20198;-82
2021/09/02 02:43:37;;;;;;;15.03;8.20;;;;;;;7.06;100.00;94558.16;5072538;28;20203;-82
2021/09/02 02:46:03;;;;;;;13.07;6.70;;;;;;;6.83;100.00;94561.34;5072176;28;20249;-82
2021/09/02 02:48:32;;;;;;;12.43;7.17;;;;;;;6.64;100.00;94559.81;5072766;28;20199;-80
2021/09/02 02:50:59;;;;;;;12.97;6.57;;;;;;;6.46;100.00;94555.53;5072518;28;20207;-81
2021/09/02 02:53:25;;;;;;;11.73;6.37;;;;;;;6.36;100.00;94562.63;5072479;28;20203;-81
2021/09/02 02:55:52;;;;;;;14.77;7.33;;;;;;;6.41;100.00;94562.16;5072467;28;20195;-81
2021/09/02 02:58:18;;;;;;;11.13;6.23;;;;;;;6.29;100.00;94566.78;5072252;28;20206;-81
2021/09/02 03:00:45;;;;;;;16.17;8.30;;;;;;;6.35;100.00;94565.38;5072202;28;20201;-81
2021/09/02 03:03:11;;;;;;;21.23;9.53;;;;;;;6.63;100.00;94563.41;5072488;28;20203;-82
2021/09/02 03:05:39;;;;;;;18.33;9.07;;;;;;;6.70;100.00;94563.59;5072232;28;20708;-81
2021/09/02 03:08:06;;;;;;;18.73;9.03;;;;;;;6.79;100.00;94571.22;5072326;28;20202;-81
2021/09/02 03:10:33;;;;;;;18.30;10.03;;;;;;;6.79;100.00;94567.81;5072404;28;20290;-81
2021/09/02 03:13:00;;;;;;;19.70;8.70;;;;;;;6.74;100.00;94570.88;5072225;28;20233;-81
2021/09/02 03:15:26;;;;;;;20.03;9.30;;;;;;;6.81;100.00;94566.69;5072535;28;20202;-81
2021/09/02 03:17:53;;;;;;;20.60;8.50;;;;;;;6.67;100.00;94564.69;5072442;28;20231;-80
2021/09/02 03:20:20;;;;;;;15.23;7.93;;;;;;;6.55;100.00;94564.16;5072346;28;20203;-82
2021/09/02 03:22:48;;;;;;;16.73;8.90;;;;;;;6.57;100.00;94559.63;5074027;28;20206;-81
2021/09/02 03:25:14;;;;;;;17.27;8.30;;;;;;;6.41;100.00;94549.19;5075747;28;20225;-81
2021/09/02 03:27:41;;;;;;;19.73;9.43;;;;;;;6.40;100.00;94550.16;5075660;28;20221;-81
2021/09/02 03:30:09;;;;;;;20.60;9.33;;;;;;;6.57;100.00;94557.03;5075718;28;20195;-81
2021/09/02 03:32:36;;;;;;;21.20;9.77;;;;;;;6.64;100.00;94552.88;5075707;28;20245;-81
2021/09/02 03:35:02;;;;;;;18.17;9.30;;;;;;;6.51;100.00;94549.88;5075672;28;20212;-81
2021/09/02 03:37:30;;;;;;;20.65;9.77;;;;;;;6.35;100.00;94552.41;5074840;28;20442;-81
2021/09/02 03:39:58;;;;;;;15.70;8.67;;;;;;;6.22;100.00;94551.03;5075359;28;20668;-81
2021/09/02 03:42:24;;;;;;;19.17;8.50;;;;;;;6.13;100.00;94549.38;5075249;28;20201;-81
2021/09/02 03:44:51;;;;;;;17.97;8.40;;;;;;;6.15;100.00;94552.63;5074928;28;20198;-81
2021/09/02 03:47:17;;;;;;;20.53;8.87;;;;;;;6.13;100.00;94551.97;5075490;28;20205;-81
2021/09/02 03:49:44;;;;;;;17.83;9.10;;;;;;;6.10;100.00;94552.28;5075423;28;20214;-81
2021/09/02 03:52:10;;;;;;;16.30;8.03;;;;;;;6.08;100.00;94555.03;5075188;28;20210;-81
2021/09/02 03:54:37;;;;;;;20.70;8.70;;;;;;;6.04;100.00;94560.66;5075087;28;20206;-80
2021/09/02 03:57:05;;;;;;;18.07;8.47;;;;;;;6.12;100.00;94552.94;5075099;28;20581;-81
2021/09/02 03:59:32;;;;;;;23.93;10.17;;;;;;;6.19;100.00;94548.75;5075168;28;20199;-81
2021/09/02 04:01:58;;;;;;;19.93;9.70;;;;;;;6.22;100.00;94550.25;5075135;28;20206;-80
2021/09/02 04:04:25;;;;;;;21.03;8.77;;;;;;;6.14;100.00;94547.59;5075025;28;20210;-81
2021/09/02 04:06:51;;;;;;;18.60;8.10;;;;;;;6.02;100.00;94550.44;5074919;28;20233;-80
2021/09/02 04:09:18;;;;;;;20.53;8.27;;;;;;;5.93;100.00;94543.56;5074798;28;20221;-81
2021/09/02 04:11:45;;;;;;;20.13;8.80;;;;;;;5.88;100.00;94544.03;5075047;28;20665;-81
2021/09/02 04:14:13;;;;;;;26.90;9.33;;;;;;;5.90;100.00;94556.81;5074986;28;20593;-80
2021/09/02 04:16:39;;;;;;;19.63;9.67;;;;;;;5.92;100.00;94550.50;5074874;28;20624;-81
2021/09/02 04:19:06;;;;;;;19.60;9.37;;;;;;;5.77;100.00;94557.22;5074803;28;20203;-80
2021/09/02 04:21:32;;;;;;;20.30;10.67;;;;;;;5.97;100.00;94551.88;5074767;28;20199;-81
2021/09/02 04:23:59;;;;;;;31.80;15.80;;;;;;;5.96;100.00;94555.41;5073853;28;20451;-81
2021/09/02 04:26:25;;;;;;;21.03;10.63;;;;;;;5.84;100.00;94557.44;5074608;28;20264;-80
2021/09/02 04:28:52;;;;;;;16.70;8.90;;;;;;;5.73;100.00;94571.47;5074707;28;20289;-81
2021/09/02 04:31:19;;;;;;;21.73;9.90;;;;;;;5.79;100.00;94572.63;5074549;28;20310;-80
2021/09/02 04:33:46;;;;;;;23.13;9.47;;;;;;;5.73;100.00;94569.66;5073354;28;20210;-80
2021/09/02 04:36:12;;;;;;;22.90;9.77;;;;;;;5.87;100.00;94578.66;5074261;28;20681;-81
2021/09/02 04:38:39;;;;;;;30.60;13.33;;;;;;;6.22;100.00;94576.97;5074093;28;20675;-79
2021/09/02 04:41:06;;;;;;;27.60;12.60;;;;;;;6.27;100.00;94569.53;5074370;28;20622;-80
2021/09/02 04:43:32;;;;;;;26.57;11.70;;;;;;;6.28;100.00;94566.00;5074341;28;20207;-80
2021/09/02 04:45:59;;;;;;;24.23;10.53;;;;;;;6.17;100.00;94570.63;5073979;28;20245;-81
2021/09/02 04:48:27;;;;;;;20.57;9.67;;;;;;;5.98;100.00;94563.84;5074102;28;20206;-82
2021/09/02 04:50:53;;;;;;;18.43;9.70;;;;;;;6.02;100.00;94572.97;5074075;28;20581;-80
2021/09/02 04:53:20;;;;;;;24.00;11.00;;;;;;;5.98;100.00;94563.84;5074017;28;20198;-80
2021/09/02 04:55:47;;;;;;;27.67;12.97;;;;;;;6.11;100.00;94564.25;5074171;28;20207;-80
2021/09/02 04:58:15;;;;;;;30.53;13.43;;;;;;;6.13;100.00;94564.94;5073992;28;20199;-81
2021/09/02 05:00:42;;;;;;;26.77;11.83;;;;;;;6.07;100.00;94568.13;5073887;28;20201;-80
2021/09/02 05:03:09;;;;;;;30.30;12.13;;;;;;;6.14;100.00;94566.56;5073827;28;20207;-80
2021/09/02 05:05:37;;;;;;;24.00;11.50;;;;;;;6.08;100.00;94580.94;5073783;28;20229;-80
2021/09/02 05:08:04;;;;;;;21.50;9.50;;;;;;;5.96;100.00;94574.38;5074079;28;20291;-80
2021/09/02 05:10:31;;;;;;;26.95;11.70;;;;;;;6.04;100.00;94571.03;5073632;28;20944;-80
2021/09/02 05:12:57;;;;;;;32.23;12.40;;;;;;;6.22;100.00;94569.19;5073731;28;20569;-80
2021/09/02 05:15:24;;;;;;;30.87;12.97;;;;;;;6.28;100.00;94576.38;5073633;28;20199;-82
2021/09/02 05:17:50;;;;;;;36.17;15.07;;;;;;;6.56;100.00;94567.56;5073576;28;20206;-81
2021/09/02 05:20:17;;;;;;;34.17;13.70;;;;;;;6.51;100.00;94565.44;5073373;28;20209;-81
2021/09/02 05:22:46;;;;;;;32.80;12.97;;;;;;;6.54;100.00;94561.72;5073684;28;20205;-81
2021/09/02 05:25:13;;;;;;;24.00;11.53;;;;;;;6.46;100.00;94557.31;5073500;28;20198;-81
2021/09/02 05:27:40;;;;;;;22.53;10.33;;;;;;;6.36;100.00;94560.03;5073417;28;20210;-81
2021/09/02 05:30:10;;;;;;;23.87;10.20;;;;;;;6.42;100.00;94567.19;5075389;28;20206;-81
2021/09/02 05:32:37;;;;;;;22.60;10.80;;;;;;;6.38;100.00;94565.03;5073279;28;20562;-81
2021/09/02 05:35:04;;;;;;;28.57;12.23;;;;;;;6.40;100.00;94573.50;5073578;28;20210;-80
2021/09/02 05:37:30;;;;;;;23.13;10.93;;;;;;;6.47;100.00;94570.13;5073415;28;20203;-81
2021/09/02 05:39:58;;;;;;;26.93;11.30;;;;;;;6.53;100.00;94571.31;5073296;28;20534;-81
2021/09/02 05:42:25;;;;;;;21.13;10.97;;;;;;;6.61;100.00;94576.53;5073335;28;20195;-81
2021/09/02 05:44:52;;;;;;;28.67;12.90;;;;;;;6.73;100.00;94574.47;5072203;28;20711;-81
2021/09/02 05:47:18;;;;;;;29.97;12.73;;;;;;;6.77;100.00;94580.94;5073026;28;20226;-79
2021/09/02 05:49:45;;;;;;;32.17;13.03;;;;;;;6.84;100.00;94581.97;5073292;28;20224;-81
2021/09/02 05:52:11;;;;;;;27.83;12.77;;;;;;;6.82;100.00;94577.88;5073189;28;20289;-81
2021/09/02 05:54:38;;;;;;;30.47;12.97;;;;;;;6.91;100.00;94576.97;5073175;28;20206;-80
2021/09/02 05:57:06;;;;;;;27.90;13.33;;;;;;;6.95;100.00;94572.25;5072953;28;20198;-81
2021/09/02 05:59:32;;;;;;;28.93;13.13;;;;;;;7.06;100.00;94573.72;5073151;28;20207;-81
2021/09/02 06:01:59;;;;;;;35.13;14.57;;;;;;;7.13;100.00;94574.75;5072914;28;20410;-80
2021/09/02 06:04:25;;;;;;;31.77;14.63;;;;;;;7.17;100.00;94578.63;5061180;28;20202;-81
2021/09/02 06:06:51;;;;;;;34.17;15.03;;;;;;;7.29;100.00;94571.34;5073010;28;20596;-81
2021/09/02 06:09:18;;;;;;;38.97;16.40;;;;;;;7.38;100.00;94581.59;5072866;28;20561;-81
2021/09/02 06:11:45;;;;;;;36.77;15.77;;;;;;;7.51;100.00;94580.28;5072902;28;20194;-81
2021/09/02 06:14:13;;;;;;;36.03;14.37;;;;;;;7.57;100.00;94587.44;5072783;28;20213;-79
2021/09/02 06:16:39;;;;;;;38.10;15.37;;;;;;;7.63;100.00;94591.16;5072720;28;20215;-81
2021/09/02 06:19:06;;;;;;;39.10;15.47;;;;;;;7.78;100.00;94582.56;5072802;28;20198;-80
2021/09/02 06:21:32;;;;;;;36.87;15.43;;;;;;;7.84;100.00;94590.69;5072933;28;20199;-82
2021/09/02 06:23:59;;;;;;;34.57;14.67;;;;;;;7.84;100.00;94590.69;5072299;28;20198;-81
2021/09/02 06:26:25;;;;;;;34.17;14.67;;;;;;;7.87;100.00;94593.78;5072337;28;20589;-80
2021/09/02 06:28:52;;;;;;;40.10;15.87;;;;;;;8.03;100.00;94582.56;5072274;28;20206;-81
2021/09/02 06:31:20;;;;;;;34.23;15.73;;;;;;;8.27;100.00;94579.09;5072512;28;20203;-82
2021/09/02 06:33:46;;;;;;;34.10;15.67;;;;;;;8.34;100.00;94585.28;5072702;28;20205;-79
2021/09/02 06:36:12;;;;;;;35.60;16.07;;;;;;;8.51;100.00;94574.84;5072728;28;20190;-80
2021/09/02 06:38:39;;;;;;;33.73;16.70;;;;;;;8.70;100.00;94576.25;5072618;28;20566;-80
2021/09/02 06:41:05;;;;;;;34.63;16.57;;;;;;;8.79;100.00;94567.44;5072536;28;20195;-80
2021/09/02 06:43:32;;;;;;;29.60;14.97;;;;;;;8.96;100.00;94580.34;5072448;28;20199;-80
2021/09/02 06:45:58;;;;;;;31.05;14.20;;;;;;;9.13;100.00;94573.28;5072176;28;20476;-80
2021/09/02 06:48:26;;;;;;;30.63;14.67;;;;;;;9.19;100.00;94573.41;5072583;28;20199;-80
2021/09/02 06:50:53;;;;;;;22.07;11.63;;;;;;;9.44;100.00;94570.63;5072567;28;20222;-80
2021/09/02 06:53:19;;;;;;;18.63;9.87;;;;;;;9.52;100.00;94570.56;5072415;28;20237;-80
2021/09/02 06:55:46;;;;;;;18.07;8.40;;;;;;;9.62;100.00;94572.94;5072740;28;20231;-79
2021/09/02 06:58:17;;;;;;;12.60;6.57;;;;;;;9.77;100.00;94576.41;5076018;28;20280;-80
2021/09/02 07:00:44;;;;;;;11.73;6.90;;;;;;;9.90;100.00;94582.84;5076099;28;20198;-81
2021/09/02 07:03:11;;;;;;;14.63;7.37;;;;;;;10.09;100.00;94589.34;5076113;28;20302;-80
2021/09/02 07:05:39;;;;;;;11.87;6.80;;;;;;;10.14;100.00;94593.06;5076174;28;20206;-79
2021/09/02 07:08:05;;;;;;;11.77;6.13;;;;;;;10.25;100.00;94586.59;5077786;28;20230;-82
2021/09/02 07:10:32;;;;;;;14.47;7.27;;;;;;;10.42;100.00;94595.09;5078382;28;20198;-80
2021/09/02 07:13:01;;;;;;;11.77;6.17;;;;;;;10.51;100.00;94580.97;5075912;28;20203;-79
2021/09/02 07:15:27;;;;;;;15.20;6.83;;;;;;;10.75;100.00;94586.91;5076051;28;20198;-79
2021/09/02 07:17:54;;;;;;;13.70;7.00;;;;;;;10.83;100.00;94580.78;5075993;28;20206;-80
2021/09/02 07:20:23;;;;;;;13.90;6.20;;;;;;;10.89;100.00;94582.66;5075905;28;20206;-81
2021/09/02 07:22:51;;;;;;;15.47;6.77;;;;;;;11.04;100.00;94586.09;5075825;28;20558;-80
2021/09/02 07:25:17;;;;;;;10.03;6.43;;;;;;;11.13;100.00;94583.38;5075515;28;20673;-79
2021/09/02 07:27:44;;;;;;;10.83;5.77;;;;;;;11.17;100.00;94592.44;5075754;28;20230;-80
2021/09/02 07:30:11;;;;;;;10.63;5.93;;;;;;;11.29;100.00;94588.34;5075491;28;20656;-80
2021/09/02 07:32:38;;;;;;;12.77;5.83;;;;;;;11.51;100.00;94589.22;5075891;28;20222;-80
2021/09/02 07:35:06;;;;;;;11.10;6.77;;;;;;;11.72;100.00;94591.00;5075649;28;20205;-80
2021/09/02 07:37:33;;;;;;;12.20;6.13;;;;;;;11.94;100.00;94593.66;5075553;28;20202;-80
2021/09/02 07:40:00;;;;;;;12.37;5.80;;;;;;;12.11;100.00;94605.47;5075692;28;20207;-80
2021/09/02 07:42:27;;;;;;;9.27;5.30;;;;;;;12.09;100.00;94607.47;5075583;28;20199;-79
2021/09/02 07:44:54;;;;;;;10.47;5.90;;;;;;;12.42;100.00;94613.97;5075300;28;20231;-80
2021/09/02 07:47:20;;;;;;;11.87;5.03;;;;;;;12.42;100.00;94611.34;5075375;28;20238;-78
2021/09/02 07:49:47;;;;;;;7.53;4.70;;;;;;;12.42;100.00;94616.59;5075263;28;20199;-78
2021/09/02 07:52:13;;;;;;;12.27;5.55;;;;;;;12.58;100.00;94608.44;5075121;28;20653;-77
2021/09/02 07:54:40;;;;;;;7.80;4.77;;;;;;;12.92;100.00;94612.88;5075390;28;20202;-77
2021/09/02 07:57:08;;;;;;;8.97;5.23;;;;;;;13.16;100.00;94613.38;5075311;28;20198;-76
2021/09/02 07:59:34;;;;;;;9.30;4.25;;;;;;;13.60;100.00;94609.50;5075241;28;20594;-79
2021/09/02 08:02:01;;;;;;;9.60;4.55;;;;;;;13.56;100.00;94613.53;5075060;28;20611;-77
2021/09/02 08:04:27;;;;;;;7.25;4.15;;;;;;;13.73;100.00;94619.22;5074886;28;20723;-80
2021/09/02 08:06:54;;;;;;;6.03;3.63;;;;;;;14.02;100.00;94614.63;5074760;28;20693;-79
2021/09/02 08:09:21;;;;;;;6.18;4.00;;;;;;;14.15;100.00;94621.72;5074005;28;20649;-78
2021/09/02 08:11:47;;;;;;;5.95;3.63;;;;;;;14.34;100.00;94625.34;5074973;28;20206;-79
2021/09/02 08:14:15;;;;;;;6.32;3.72;;;;;;;14.48;100.00;94623.53;5074752;28;20664;-79
2021/09/02 08:16:42;;;;;;;6.38;3.40;;;;;;;14.64;99.36;94610.00;5074627;28;20234;-78
2021/09/02 08:19:08;;;;;;;7.93;3.83;;;;;;;14.74;98.70;94615.63;5074741;28;20206;-80
2021/09/02 08:21:35;;;;;;;5.93;3.50;;;;;;;14.83;93.24;94618.06;5074528;28;20202;-80
2021/09/02 08:24:01;;;;;;;8.60;3.47;;;;;;;14.93;100.00;94610.53;5074746;28;20207;-79
2021/09/02 08:26:28;;;;;;;8.02;4.07;;;;;;;14.78;95.93;94616.03;5074741;28;20619;-80
2021/09/02 08:28:55;;;;;;;7.72;4.07;;;;;;;14.86;94.92;94617.66;5074237;28;20565;-81
2021/09/02 08:31:23;;;;;;;10.70;3.20;;;;;;;14.82;93.60;94616.44;5074536;28;20214;-81
2021/09/02 08:33:49;;;;;;;7.78;3.60;;;;;;;15.05;91.42;94616.75;5074309;28;20558;-81
2021/09/02 08:36:16;;;;;;;9.07;3.00;;;;;;;15.13;87.55;94613.09;5074423;28;20203;-81
2021/09/02 08:38:47;;;;;;;6.13;2.85;;;;;;;15.11;85.36;94602.78;5074244;28;20657;-79
2021/09/02 08:41:14;;;;;;;6.15;3.03;;;;;;;15.14;85.97;94620.78;5074453;28;20199;-82
2021/09/02 08:43:42;;;;;;;6.13;3.70;;;;;;;15.28;88.19;94620.75;5074280;28;20368;-79
2021/09/02 08:46:09;;;;;;;5.80;3.30;;;;;;;15.34;84.20;94612.03;5074092;28;20321;-82
2021/09/02 08:48:39;;;;;;;7.60;3.65;;;;;;;15.40;83.54;94616.44;5073760;28;20233;-81
2021/09/02 08:51:06;;;;;;;5.60;3.17;;;;;;;15.42;86.24;94617.06;5074262;28;20195;-81
2021/09/02 08:53:32;;;;;;;4.95;2.47;;;;;;;15.62;85.86;94621.41;5073881;28;20748;-81
2021/09/02 08:55:59;;;;;;;5.25;3.30;;;;;;;15.73;88.03;94612.84;5074096;28;20289;-81
2021/09/02 08:58:25;;;;;;;6.68;2.70;;;;;;;15.72;83.10;94619.09;5074019;28;20205;-81
2021/09/02 09:00:54;;;;;;;5.63;3.05;;;;;;;15.56;82.96;94606.47;5074002;28;20232;-80
2021/09/02 09:03:21;;;;;;;6.53;2.90;;;;;;;15.75;83.62;94605.53;5074000;28;20210;-79
2021/09/02 09:05:54;;;;;;;6.07;2.80;;;;;;;15.89;84.47;94612.38;5074005;28;20195;-80
2021/09/02 09:08:31;;;;;;;5.35;2.90;;;;;;;15.99;84.52;94613.75;5073818;28;20233;-81
2021/09/02 09:11:13;;;;;;;5.90;3.45;;;;;;;15.90;86.44;94614.00;5073847;28;20206;-80
2021/09/02 09:13:39;;;;;;;7.88;3.63;;;;;;;15.90;84.82;94614.00;5076560;28;20199;-81
2021/09/02 09:16:06;;;;;;;7.03;3.20;;;;;;;15.86;84.68;94607.50;5083094;28;20557;-81
2021/09/02 09:18:32;;;;;;;7.55;3.40;;;;;;;16.04;82.94;94603.38;5080688;28;20285;-81
2021/09/02 09:21:16;;;;;;;5.53;2.83;;;;;;;16.26;85.06;94604.59;5074184;28;20209;-82
2021/09/02 09:23:58;;;;;;;8.18;3.00;;;;;;;16.36;83.95;94611.22;5072856;28;20237;-81
2021/09/02 09:26:26;;;;;;;6.25;3.33;;;;;;;16.26;81.07;94607.22;5073775;28;20203;-82
2021/09/02 09:28:56;;;;;;;5.43;3.00;;;;;;;16.22;80.06;94607.88;5073768;28;20203;-79
2021/09/02 09:31:31;;;;;;;4.65;2.97;;;;;;;16.34;78.22;94613.28;5073350;28;20748;-81
2021/09/02 09:34:00;;;;;;;5.97;2.80;;;;;;;16.27;78.86;94611.50;5073359;28;20204;-83
2021/09/02 09:36:29;;;;;;;6.32;2.63;;;;;;;16.19;78.41;94610.97;5073266;28;20205;-79
2021/09/02 09:39:06;;;;;;;13.38;2.97;;;;;;;16.13;76.59;94612.59;5073380;28;20203;-78
2021/09/02 09:41:35;;;;;;;6.28;2.90;;;;;;;16.31;78.74;94609.22;5073434;28;20603;-78
2021/09/02 09:44:18;;;;;;;5.00;3.13;;;;;;;16.44;79.94;94610.97;5073053;28;20669;-78
2021/09/02 09:47:06;;;;;;;5.75;2.78;;;;;;;16.41;76.96;94606.13;5072877;28;20226;-79
2021/09/02 09:49:42;;;;;;;5.65;2.95;;;;;;;16.52;76.25;94609.84;5073060;28;20653;-80
2021/09/02 09:52:25;;;;;;;4.78;3.08;;;;;;;16.68;76.82;94596.13;5072217;28;20572;-78
2021/09/02 09:54:54;;;;;;;6.88;2.83;;;;;;;16.80;78.65;94594.41;5073097;28;20293;-78
2021/09/02 09:57:20;;;;;;;4.97;3.00;;;;;;;16.70;74.48;94601.19;5072915;28;20272;-80
2021/09/02 09:59:47;;;;;;;11.07;3.03;;;;;;;16.70;74.75;94585.34;5073065;28;20199;-79
2021/09/02 10:02:13;;;;;;;7.90;2.95;;;;;;;16.81;74.14;94577.53;5073050;28;20195;-78
2021/09/02 10:04:42;;;;;;;7.85;3.28;;;;;;;17.04;74.95;94575.28;5073069;28;20203;-79
2021/09/02 10:07:09;;;;;;;7.05;2.67;;;;;;;17.15;75.03;94575.38;5072910;28;20268;-78
2021/09/02 10:09:37;;;;;;;5.20;2.90;;;;;;;17.02;74.26;94578.97;5072820;28;20290;-78
2021/09/02 10:12:04;;;;;;;8.80;2.72;;;;;;;16.74;70.56;94576.81;5072774;28;20256;-78
2021/09/02 10:14:31;;;;;;;5.63;2.83;;;;;;;16.98;71.03;94580.41;5072745;28;20724;-79
2021/09/02 10:16:58;;;;;;;5.90;2.70;;;;;;;17.07;69.71;94585.41;5072981;28;20588;-79
2021/09/02 10:19:26;;;;;;;4.47;2.85;;;;;;;17.21;69.67;94576.31;5072931;28;20195;-78
2021/09/02 10:21:54;;;;;;;3.70;2.65;;;;;;;17.14;69.37;94575.59;5072757;28;20558;-77
2021/09/02 10:24:39;;;;;;;5.15;2.90;;;;;;;17.04;69.45;94567.38;5072597;28;20213;-79
2021/09/02 10:27:37;;;;;;;5.97;2.78;;;;;;;17.33;70.88;94577.16;5072734;28;20228;-79
2021/09/02 10:30:24;;;;;;;5.35;2.60;;;;;;;17.50;70.42;94568.63;5072679;28;20210;-81
2021/09/02 10:32:51;;;;;;;4.32;2.47;;;;;;;17.53;67.23;94576.91;5076351;28;20238;-79
2021/09/02 10:35:35;;;;;;;5.10;2.53;;;;;;;17.48;68.40;94562.78;5076312;28;20202;-77
2021/09/02 10:38:05;;;;;;;5.00;2.97;;;;;;;17.56;69.33;94568.53;5076553;28;20215;-78
2021/09/02 10:40:58;;;;;;;4.85;2.78;;;;;;;17.81;67.74;94558.88;5080900;28;20237;-78
2021/09/02 10:43:52;;;;;;;5.13;2.30;;;;;;;17.67;65.21;94561.69;5062212;28;20202;-77
2021/09/02 10:46:36;;;;;;;5.32;2.90;;;;;;;17.86;64.16;94556.34;5076367;28;20235;-77
2021/09/02 10:49:14;;;;;;;5.45;2.83;;;;;;;18.01;66.70;94563.88;5076446;28;20588;-77
2021/09/02 10:51:43;;;;;;;4.93;2.97;;;;;;;17.84;65.28;94563.72;5076498;28;20202;-78
2021/09/02 10:54:11;;;;;;;5.20;2.60;;;;;;;17.94;65.90;94566.63;5076403;28;20203;-80
2021/09/02 10:57:01;;;;;;;5.85;2.58;;;;;;;17.98;62.52;94564.34;5076405;28;20202;-80
2021/09/02 10:59:55;;;;;;;4.07;2.65;;;;;;;18.03;65.10;94559.97;5076077;28;20224;-78
2021/09/02 11:02:43;;;;;;;4.70;3.00;;;;;;;18.18;60.01;94569.31;5075977;28;20206;-78
2021/09/02 11:05:11;;;;;;;5.45;2.60;;;;;;;18.21;59.91;94558.28;5076182;28;20251;-76
2021/09/02 11:07:40;;;;;;;4.90;3.00;;;;;;;18.31;61.52;94561.16;5075984;28;20230;-79
2021/09/02 11:10:09;;;;;;;6.70;2.58;;;;;;;18.31;62.14;94563.81;5075873;28;20211;-78
2021/09/02 11:12:39;;;;;;;5.63;2.90;;;;;;;18.46;61.90;94566.78;5076102;28;20209;-78
2021/09/02 11:15:20;;;;;;;6.75;2.88;;;;;;;18.52;64.26;94562.44;5076315;28;20202;-77
2021/09/02 11:17:51;;;;;;;5.43;2.90;;;;;;;18.66;65.48;94563.00;5075562;28;20473;-78
2021/09/02 11:20:24;;;;;;;5.88;3.20;;;;;;;18.71;60.92;94563.13;5075908;28;20205;-79
2021/09/02 11:22:51;;;;;;;5.60;3.05;;;;;;;18.77;59.26;94556.06;5075698;28;20250;-80
2021/09/02 11:25:20;;;;;;;5.28;2.78;;;;;;;18.83;62.16;94549.91;5075286;28;20209;-79
2021/09/02 11:27:50;;;;;;;6.25;3.13;;;;;;;18.99;68.04;94543.09;5075672;28;20233;-79
2021/09/02 11:30:27;;;;;;;5.43;3.08;;;;;;;19.01;61.98;94560.34;5075643;28;20261;-80
2021/09/02 11:32:59;;;;;;;5.93;3.35;;;;;;;19.00;65.84;94556.09;5075647;28;20202;-80